Terminal Aerodrome Forecast
Issued by NWS Jackson, MS

Home | Current Version | Previous Version | Text Only | Print | Product List | Glossary On
Versions: 1 2 3 4 5 6 7 8 9 10 11 12
000
FTUS44 KJAN 202300
TAFMEI
TAF
KMEI 202320Z 2100/2124 00000KT P6SM BKN050
     FM210900 00000KT 4SM BR BKN050
     FM211400 13006KT P6SM SCT050 BKN250=

USA.gov is the U.S. government's official web portal to all federal, state and local government web resources and services.